Time;durP1;ratioP1;P1;durP2;ratioP2;P2;SDS_P1;SDS_P2;PMS_P1;PMS_P2;Temp;Humidity;BMP_temperature;BMP_pressure;BME280_temperature;BME280_humidity;BME280_pressure;Samples;Min_cycle;Max_cycle;Signal;HPM_P1;HPM_P2
2021/12/15 00:20:17;;;;;;;;;;;;;;;;;;;;;
2021/12/15 00:26:17;;;;;;;30.70;27.30;;;9.20;99.90;;;;;;10443828;28;20290;-85
2021/12/15 00:38:53;;;;;;;30.13;25.20;;;9.10;99.90;;;;;;10406985;28;20189;-85
2021/12/15 00:50:10;;;;;;;33.00;26.20;;;9.20;99.90;;;;;;10382444;28;20225;-86
2021/12/15 00:55:15;;;;;;;30.17;25.07;;;9.20;99.90;;;;;;10440220;28;20652;-83
2021/12/15 01:06:03;;;;;;;27.50;24.57;;;9.20;99.90;;;;;;10423740;28;20204;-85
2021/12/15 01:11:13;;;;;;;25.93;23.07;;;9.30;99.90;;;;;;10433882;28;20266;-85
2021/12/15 01:21:56;;;;;;;27.50;23.10;;;9.30;99.90;;;;;;10453416;28;20742;-85
2021/12/15 01:26:59;;;;;;;29.20;24.60;;;9.30;99.90;;;;;;10453897;28;20292;-84
2021/12/15 01:32:04;;;;;;;35.17;24.43;;;9.30;99.90;;;;;;10471212;28;20220;-83
2021/12/15 01:37:06;;;;;;;23.43;20.93;;;9.30;99.90;;;;;;10492038;28;20242;-83
2021/12/15 01:42:09;;;;;;;33.63;22.53;;;9.30;99.90;;;;;;10484135;28;20216;-83
2021/12/15 01:47:13;;;;;;;26.53;22.47;;;9.30;99.90;;;;;;10478394;28;20196;-83
2021/12/15 01:52:18;;;;;;;28.40;23.17;;;9.30;99.90;;;;;;10500500;28;20266;-84
2021/12/15 01:57:22;;;;;;;29.77;23.73;;;9.30;99.90;;;;;;10485097;28;20232;-83
2021/12/15 02:02:26;;;;;;;26.23;23.17;;;9.30;99.90;;;;;;10458379;28;20221;-84
2021/12/15 02:07:29;;;;;;;30.60;26.20;;;9.30;99.90;;;;;;10482677;28;20219;-83
2021/12/15 02:12:36;;;;;;;32.20;25.37;;;9.30;99.90;;;;;;10469726;28;20209;-83
2021/12/15 02:17:40;;;;;;;28.13;24.37;;;9.20;99.90;;;;;;10470134;28;20205;-82
2021/12/15 02:22:45;;;;;;;26.47;22.73;;;9.20;99.90;;;;;;10469075;28;20593;-83
2021/12/15 02:27:47;;;;;;;28.33;23.60;;;9.20;99.90;;;;;;10487021;28;20208;-84
2021/12/15 02:33:01;;;;;;;28.10;22.87;;;9.10;99.90;;;;;;10486304;28;20216;-83
2021/12/15 02:38:05;;;;;;;30.00;24.40;;;9.10;99.90;;;;;;10473319;28;20189;-84
2021/12/15 02:43:08;;;;;;;26.50;22.83;;;9.10;99.90;;;;;;10471360;28;20221;-85
2021/12/15 02:48:10;;;;;;;27.93;23.30;;;9.10;99.90;;;;;;10469274;28;20272;-85
2021/12/15 02:53:13;;;;;;;29.40;23.57;;;9.20;99.90;;;;;;10469647;28;20227;-82
2021/12/15 02:58:17;;;;;;;27.00;23.43;;;9.20;99.90;;;;;;10483589;28;20220;-83
2021/12/15 03:03:51;;;;;;;29.83;23.40;;;9.20;99.90;;;;;;10467362;28;20244;-82
2021/12/15 03:09:10;;;;;;;28.37;24.10;;;9.20;99.90;;;;;;10486202;28;20232;-83
2021/12/15 03:19:44;;;;;;;19.90;16.90;;;9.20;99.90;;;;;;10424081;28;20208;-83
2021/12/15 03:24:48;;;;;;;18.93;16.47;;;9.20;99.90;;;;;;10501744;28;20307;-83
2021/12/15 03:35:22;;;;;;;19.77;16.93;;;9.10;99.90;;;;;;10485765;28;20191;-83
2021/12/15 03:40:36;;;;;;;22.03;18.37;;;9.10;99.90;;;;;;10466845;28;20583;-83
2021/12/15 03:45:41;;;;;;;15.83;14.00;;;9.10;99.90;;;;;;10466190;28;20283;-83
2021/12/15 03:50:44;;;;;;;12.10;10.90;;;9.10;99.90;;;;;;10483265;28;20781;-83
2021/12/15 03:55:47;;;;;;;10.47;9.47;;;9.20;99.90;;;;;;10469345;28;20193;-83
2021/12/15 04:00:54;;;;;;;7.57;6.50;;;9.10;99.90;;;;;;10473599;28;20283;-83
2021/12/15 04:05:58;;;;;;;7.90;7.20;;;9.10;99.90;;;;;;10466721;28;20188;-82
2021/12/15 04:11:47;;;;;;;7.27;6.60;;;9.00;99.90;;;;;;10482698;28;20222;-83
2021/12/15 04:29:39;;;;;;;9.63;8.70;;;9.00;99.90;;;;;;10352485;28;20222;-83
2021/12/15 04:35:22;;;;;;;8.27;7.53;;;8.90;99.90;;;;;;10337994;28;20301;-83
2021/12/15 04:40:52;;;;;;;;;;;;;;;;;;;;;
2021/12/15 04:46:34;;;;;;;;;;;;;;;;;;;;;
2021/12/15 04:52:33;;;;;;;10.40;9.40;;;9.00;99.90;;;;;;10451012;28;20715;-82
2021/12/15 04:57:36;;;;;;;11.30;9.93;;;8.90;99.90;;;;;;10491118;28;20197;-83
2021/12/15 05:02:38;;;;;;;10.90;9.90;;;8.90;99.90;;;;;;10478575;28;20217;-84
2021/12/15 05:07:41;;;;;;;11.93;10.63;;;8.90;99.90;;;;;;10480691;28;20348;-83
2021/12/15 05:12:44;;;;;;;10.80;9.70;;;8.90;99.90;;;;;;10523076;28;20796;-83
2021/12/15 05:17:47;;;;;;;12.63;11.33;;;8.90;99.90;;;;;;10530182;28;20562;-84
2021/12/15 05:22:51;;;;;;;13.30;12.00;;;8.90;99.90;;;;;;10526715;28;20294;-84
2021/12/15 05:27:53;;;;;;;15.73;13.87;;;8.90;99.90;;;;;;10500532;28;20575;-83
2021/12/15 05:32:55;;;;;;;15.30;13.70;;;8.90;99.90;;;;;;10464685;28;20217;-83
2021/12/15 05:38:00;;;;;;;13.83;12.50;;;8.90;99.90;;;;;;10519085;28;20580;-83
2021/12/15 05:43:05;;;;;;;13.90;12.50;;;9.00;99.90;;;;;;10522814;28;20204;-84
2021/12/15 05:48:11;;;;;;;15.00;13.60;;;9.00;99.90;;;;;;10550000;28;20198;-84
2021/12/15 05:53:15;;;;;;;13.30;12.00;;;9.00;99.90;;;;;;10483028;22;20222;-79
2021/12/15 05:58:17;;;;;;;12.40;11.13;;;9.10;99.90;;;;;;10435120;28;20202;-80
2021/12/15 06:03:19;;;;;;;12.20;10.83;;;9.00;99.90;;;;;;10425706;28;20224;-81
2021/12/15 06:08:23;;;;;;;13.23;11.93;;;9.10;99.90;;;;;;10424903;28;20194;-80
2021/12/15 06:13:27;;;;;;;12.80;11.50;;;9.10;99.90;;;;;;10423505;28;20214;-80
2021/12/15 06:18:29;;;;;;;11.43;10.40;;;9.10;99.90;;;;;;10425240;28;20240;-81
2021/12/15 06:23:32;;;;;;;12.40;11.17;;;9.10;99.90;;;;;;10443641;28;20221;-80
2021/12/15 06:28:36;;;;;;;11.90;10.70;;;9.10;99.90;;;;;;10453714;28;20205;-80
2021/12/15 06:33:40;;;;;;;14.93;13.63;;;9.10;99.90;;;;;;10463191;28;20744;-79
2021/12/15 06:38:46;;;;;;;14.93;13.43;;;9.00;99.90;;;;;;10464015;28;20220;-81
2021/12/15 06:43:51;;;;;;;13.20;11.90;;;9.10;99.90;;;;;;10466017;28;20605;-80
2021/12/15 06:59:34;;;;;;;16.13;14.53;;;9.10;99.90;;;;;;10463939;28;20236;-81
2021/12/15 07:04:37;;;;;;;15.90;14.40;;;9.10;99.90;;;;;;10478023;28;20649;-80
2021/12/15 07:09:40;;;;;;;17.63;15.93;;;9.10;99.90;;;;;;10463685;28;20209;-81
2021/12/15 07:14:43;;;;;;;17.57;15.77;;;9.10;99.90;;;;;;10440629;28;20741;-80
2021/12/15 07:20:05;;;;;;;20.23;18.17;;;9.00;99.90;;;;;;10439016;28;20244;-79
2021/12/15 07:25:10;;;;;;;19.63;17.63;;;9.10;99.90;;;;;;10439187;28;20209;-81
2021/12/15 07:30:13;;;;;;;19.27;17.30;;;9.00;99.90;;;;;;10440910;28;20224;-80
2021/12/15 07:35:16;;;;;;;18.07;16.20;;;9.10;99.90;;;;;;10438924;28;20557;-81
2021/12/15 07:40:22;;;;;;;14.17;12.80;;;9.10;99.90;;;;;;10441292;28;20301;-81
2021/12/15 07:45:26;;;;;;;19.47;17.47;;;9.10;99.90;;;;;;10439930;28;20218;-78
2021/12/15 07:50:30;;;;;;;17.97;16.17;;;9.00;99.90;;;;;;10439637;28;20300;-79
2021/12/15 07:55:34;;;;;;;17.10;14.67;;;9.00;99.90;;;;;;10427253;28;20280;-79
2021/12/15 08:00:39;;;;;;;15.20;13.80;;;9.00;99.90;;;;;;10438599;28;20895;-79
2021/12/15 08:05:42;;;;;;;16.20;14.60;;;8.90;99.90;;;;;;10463681;28;20279;-79
2021/12/15 08:10:46;;;;;;;15.10;13.70;;;8.80;99.90;;;;;;10407445;28;20600;-80
2021/12/15 08:15:48;;;;;;;16.30;14.63;;;8.80;99.90;;;;;;10422761;28;20193;-78
2021/12/15 08:20:51;;;;;;;14.30;13.00;;;8.80;99.90;;;;;;10421154;28;20216;-79
2021/12/15 08:25:55;;;;;;;13.73;12.30;;;8.90;99.90;;;;;;10425893;28;20684;-79
2021/12/15 08:30:59;;;;;;;12.87;11.53;;;8.90;99.90;;;;;;10460821;28;20309;-79
2021/12/15 08:36:04;;;;;;;11.90;10.80;;;8.90;99.90;;;;;;10443212;28;20204;-81
2021/12/15 08:41:12;;;;;;;11.13;10.13;;;8.90;99.90;;;;;;10463419;28;20209;-79
2021/12/15 08:46:17;;;;;;;11.80;10.70;;;8.90;99.90;;;;;;10440592;28;20197;-79
2021/12/15 08:51:25;;;;;;;12.00;11.00;;;8.90;99.90;;;;;;10433837;28;20249;-78
2021/12/15 08:56:29;;;;;;;10.97;9.97;;;9.00;99.90;;;;;;10428211;28;20197;-79
2021/12/15 09:01:31;;;;;;;11.00;10.00;;;9.00;99.90;;;;;;10457805;28;20756;-79
2021/12/15 09:06:35;;;;;;;10.50;9.60;;;9.10;99.90;;;;;;10461388;28;20200;-78
2021/12/15 09:11:39;;;;;;;10.17;9.20;;;9.10;99.90;;;;;;10458578;28;20240;-79
2021/12/15 09:16:44;;;;;;;9.03;8.20;;;9.20;99.90;;;;;;10447033;28;20580;-79
2021/12/15 09:21:50;;;;;;;9.50;8.60;;;9.30;99.90;;;;;;10467299;28;20236;-79
2021/12/15 09:26:55;;;;;;;9.03;8.23;;;9.30;99.90;;;;;;10455731;28;20689;-78
2021/12/15 09:31:57;;;;;;;10.10;9.20;;;9.40;99.90;;;;;;10428044;28;20256;-79
2021/12/15 09:37:02;;;;;;;10.37;9.37;;;9.40;99.90;;;;;;10426814;28;20198;-79
2021/12/15 09:42:06;;;;;;;9.43;8.63;;;9.40;99.90;;;;;;10410624;28;20272;-79
2021/12/15 09:47:35;;;;;;;9.90;9.00;;;9.40;99.90;;;;;;10426118;28;20202;-79
2021/12/15 10:03:31;;;;;;;8.40;7.60;;;9.50;99.90;;;;;;10468870;28;20209;-78
2021/12/15 10:19:21;;;;;;;9.50;8.60;;;9.40;99.90;;;;;;10465437;28;20220;-80
2021/12/15 10:24:28;;;;;;;9.00;8.30;;;9.40;99.90;;;;;;10466315;28;20225;-78
2021/12/15 10:29:31;;;;;;;9.20;8.40;;;9.30;99.90;;;;;;10429517;28;20222;-79
2021/12/15 10:34:33;;;;;;;9.93;9.13;;;9.20;99.90;;;;;;10424505;28;20186;-79
2021/12/15 10:39:36;;;;;;;9.60;8.83;;;9.20;99.90;;;;;;10407941;28;20272;-79
2021/12/15 10:44:39;;;;;;;9.70;8.90;;;9.30;99.90;;;;;;10423071;28;20222;-78
2021/12/15 10:49:42;;;;;;;9.73;8.93;;;9.30;99.90;;;;;;10422138;28;20228;-78
2021/12/15 10:54:49;;;;;;;9.53;8.60;;;9.30;99.90;;;;;;10421906;28;20217;-78
2021/12/15 10:59:55;;;;;;;9.20;8.40;;;9.20;99.90;;;;;;10442479;28;20232;-79
2021/12/15 11:05:01;;;;;;;9.27;8.53;;;9.20;99.90;;;;;;10460993;28;20631;-79
2021/12/15 11:10:07;;;;;;;9.20;8.40;;;9.20;99.90;;;;;;10463215;28;20209;-80
2021/12/15 11:15:14;;;;;;;9.43;8.70;;;9.30;99.90;;;;;;10461685;28;20194;-78
2021/12/15 11:20:19;;;;;;;9.40;8.70;;;9.20;99.90;;;;;;10463278;28;20629;-79
2021/12/15 11:25:27;;;;;;;8.43;7.83;;;9.20;99.90;;;;;;10462712;28;20213;-79
2021/12/15 11:30:37;;;;;;;9.53;8.73;;;9.30;99.90;;;;;;10461081;28;20205;-79
2021/12/15 11:35:42;;;;;;;8.57;7.87;;;9.30;99.90;;;;;;10462771;28;20193;-78
2021/12/15 11:40:48;;;;;;;10.20;9.30;;;9.30;99.90;;;;;;10475226;28;20835;-78
2021/12/15 11:45:52;;;;;;;9.20;8.50;;;9.30;99.90;;;;;;10462188;28;20217;-79
2021/12/15 11:50:58;;;;;;;9.93;9.13;;;9.30;99.90;;;;;;10503231;23;20235;-81
2021/12/15 11:56:28;;;;;;;9.20;8.50;;;9.30;99.90;;;;;;10481064;28;20296;-81
2021/12/15 12:02:04;;;;;;;9.67;8.87;;;9.30;99.90;;;;;;10480196;28;20723;-81
2021/12/15 12:07:21;;;;;;;9.63;8.83;;;9.30;99.90;;;;;;10455643;28;20275;-81
2021/12/15 12:12:29;;;;;;;9.80;8.90;;;9.20;99.90;;;;;;10495885;28;20216;-80
2021/12/15 12:17:35;;;;;;;9.47;8.77;;;9.30;99.90;;;;;;10499231;28;20228;-80
2021/12/15 12:22:38;;;;;;;11.57;10.67;;;9.30;99.90;;;;;;10507765;28;20272;-80
2021/12/15 12:27:44;;;;;;;10.70;9.80;;;9.20;99.90;;;;;;10516303;28;20693;-81
2021/12/15 12:32:48;;;;;;;9.50;8.77;;;9.20;99.90;;;;;;10514635;28;20204;-80
2021/12/15 12:37:54;;;;;;;10.37;9.57;;;9.30;99.90;;;;;;10513651;28;20214;-81
2021/12/15 12:42:57;;;;;;;9.80;8.90;;;9.20;99.90;;;;;;10496737;28;20208;-80
2021/12/15 12:48:28;;;;;;;9.23;8.50;;;9.20;99.90;;;;;;10495211;28;20227;-80
2021/12/15 12:59:25;;;;;;;8.03;7.43;;;9.30;99.90;;;;;;10481301;28;20193;-80
2021/12/15 13:04:42;;;;;;;8.60;8.00;;;9.20;99.90;;;;;;10493683;28;20216;-80
2021/12/15 13:09:49;;;;;;;9.10;8.40;;;9.10;99.90;;;;;;10510628;28;20737;-80
2021/12/15 13:14:55;;;;;;;9.80;9.00;;;9.20;99.90;;;;;;10512759;28;20231;-80
2021/12/15 13:20:00;;;;;;;10.07;9.07;;;9.20;99.90;;;;;;10506329;28;20212;-80
2021/12/15 13:30:40;;;;;;;8.87;8.17;;;9.30;99.90;;;;;;10444239;28;20600;-80
2021/12/15 13:35:49;;;;;;;8.83;8.07;;;9.30;99.90;;;;;;10499671;28;20206;-80
2021/12/15 13:41:24;;;;;;;8.53;7.83;;;9.30;99.90;;;;;;10498865;28;20217;-80
2021/12/15 13:46:42;;;;;;;8.30;7.60;;;9.30;99.90;;;;;;10496594;28;20226;-80
2021/12/15 13:52:20;;;;;;;7.77;7.07;;;9.30;99.90;;;;;;10477507;28;20232;-80
2021/12/15 13:57:28;;;;;;;7.33;6.83;;;9.30;99.90;;;;;;10479175;28;20279;-80
2021/12/15 14:02:33;;;;;;;7.80;7.23;;;9.20;99.90;;;;;;10495218;28;20304;-80
2021/12/15 14:07:41;;;;;;;7.63;7.13;;;9.20;99.90;;;;;;10501910;28;20270;-80
2021/12/15 14:12:55;;;;;;;7.27;6.77;;;9.20;99.90;;;;;;10502217;28;20215;-80
2021/12/15 14:17:58;;;;;;;8.33;7.70;;;9.20;99.90;;;;;;10500905;28;20279;-81
2021/12/15 14:23:06;;;;;;;7.90;7.33;;;9.20;99.90;;;;;;10501163;28;20216;-81
2021/12/15 14:28:09;;;;;;;7.80;7.30;;;9.20;99.90;;;;;;10503261;28;20291;-80
2021/12/15 14:33:28;;;;;;;8.03;7.40;;;9.30;99.90;;;;;;10520472;28;20240;-81
2021/12/15 14:38:37;;;;;;;7.30;6.80;;;9.30;99.90;;;;;;10522551;28;20292;-80
2021/12/15 14:43:40;;;;;;;8.07;7.47;;;9.30;99.90;;;;;;10521486;28;20279;-80
2021/12/15 14:48:42;;;;;;;7.03;6.53;;;9.30;99.90;;;;;;10516898;28;20227;-80
2021/12/15 14:53:46;;;;;;;8.53;7.73;;;9.20;99.90;;;;;;10514164;28;20224;-81
2021/12/15 14:58:54;;;;;;;7.90;7.30;;;9.20;99.90;;;;;;10510146;28;20204;-79
2021/12/15 15:03:58;;;;;;;8.93;8.13;;;9.20;99.90;;;;;;10486782;28;20318;-79
2021/12/15 15:09:17;;;;;;;7.90;7.40;;;9.20;99.90;;;;;;10503566;28;20660;-80
2021/12/15 15:14:36;;;;;;;7.10;6.60;;;9.20;99.90;;;;;;10499362;28;20188;-80
2021/12/15 15:19:51;;;;;;;7.67;7.07;;;9.10;99.90;;;;;;10509580;28;20311;-80
2021/12/15 15:24:57;;;;;;;6.60;6.10;;;9.10;99.90;;;;;;10518667;28;20211;-80
2021/12/15 15:30:05;;;;;;;7.57;6.97;;;9.10;99.90;;;;;;10516604;28;20223;-79
2021/12/15 15:35:18;;;;;;;8.00;7.40;;;9.10;99.90;;;;;;10522059;28;20201;-79
2021/12/15 15:40:30;;;;;;;7.10;6.60;;;9.10;99.90;;;;;;10516486;28;20208;-80
2021/12/15 15:45:38;;;;;;;8.40;7.80;;;9.10;99.90;;;;;;10499277;28;20489;-80
2021/12/15 15:50:43;;;;;;;8.50;7.70;;;9.10;99.90;;;;;;10511933;28;20255;-80
2021/12/15 15:55:49;;;;;;;9.57;8.83;;;9.00;99.90;;;;;;10497531;28;20255;-80
2021/12/15 16:00:54;;;;;;;8.80;8.10;;;9.10;99.90;;;;;;10520755;28;20287;-79
2021/12/15 16:06:02;;;;;;;9.80;9.00;;;9.00;99.90;;;;;;10519652;28;20625;-80
2021/12/15 16:11:08;;;;;;;8.73;8.03;;;9.00;99.90;;;;;;10515229;28;20621;-80
2021/12/15 16:16:15;;;;;;;8.63;8.03;;;9.10;99.90;;;;;;10518029;28;20195;-80
2021/12/15 16:26:41;;;;;;;10.03;9.23;;;9.00;99.90;;;;;;10523022;28;20561;-79
2021/12/15 16:31:46;;;;;;;9.37;8.57;;;9.00;99.90;;;;;;10523290;28;20308;-79
2021/12/15 16:36:50;;;;;;;11.20;8.93;;;9.00;99.90;;;;;;10523409;28;20267;-79
2021/12/15 16:41:54;;;;;;;8.80;8.10;;;9.10;99.90;;;;;;10525823;28;20216;-79
2021/12/15 16:47:11;;;;;;;9.37;8.67;;;9.10;99.90;;;;;;10518331;28;20211;-78
2021/12/15 16:52:22;;;;;;;12.30;11.10;;;9.10;99.90;;;;;;10518337;28;20278;-79
2021/12/15 16:57:28;;;;;;;8.73;8.03;;;9.10;99.90;;;;;;10505136;28;20648;-80
2021/12/15 17:02:34;;;;;;;9.67;8.90;;;9.00;99.90;;;;;;10507582;28;20224;-80
2021/12/15 17:07:38;;;;;;;9.40;8.60;;;9.00;99.90;;;;;;10510360;28;20219;-80
2021/12/15 17:12:44;;;;;;;11.03;10.13;;;8.90;99.90;;;;;;10493035;28;20208;-79
2021/12/15 17:17:49;;;;;;;10.70;9.90;;;8.80;99.90;;;;;;10515980;28;20278;-80
2021/12/15 17:22:53;;;;;;;10.00;9.20;;;8.80;99.90;;;;;;10513827;28;20238;-80
2021/12/15 17:28:01;;;;;;;11.23;10.33;;;8.90;99.90;;;;;;10531594;28;20546;-81
2021/12/15 17:33:05;;;;;;;11.20;10.30;;;8.90;99.90;;;;;;10491302;28;20263;-81
2021/12/15 17:38:23;;;;;;;12.80;11.70;;;8.90;99.90;;;;;;10482377;28;20203;-80
2021/12/15 17:43:32;;;;;;;12.43;11.23;;;8.90;99.90;;;;;;10501593;28;20216;-79
2021/12/15 17:48:36;;;;;;;11.80;10.80;;;8.90;99.90;;;;;;10500855;28;20220;-80
2021/12/15 17:53:39;;;;;;;12.90;11.90;;;8.90;99.90;;;;;;10523560;22;20768;-81
2021/12/15 17:58:46;;;;;;;11.00;10.20;;;9.00;99.90;;;;;;10491680;28;20196;-81
2021/12/15 18:03:48;;;;;;;11.73;10.83;;;9.00;99.90;;;;;;10507432;28;20316;-82
2021/12/15 18:08:52;;;;;;;11.67;10.67;;;8.90;99.90;;;;;;10492303;28;20201;-85
2021/12/15 18:14:00;;;;;;;12.13;11.17;;;8.90;99.90;;;;;;10511740;28;20711;-85
2021/12/15 18:19:03;;;;;;;11.50;10.60;;;8.90;99.90;;;;;;10492224;28;20215;-83
2021/12/15 18:24:09;;;;;;;13.07;12.00;;;8.80;99.90;;;;;;10495052;28;20216;-84
2021/12/15 18:29:14;;;;;;;12.43;11.43;;;8.80;99.90;;;;;;10510442;28;20219;-83
2021/12/15 18:34:17;;;;;;;13.80;12.57;;;8.80;99.90;;;;;;10508306;28;20250;-83
2021/12/15 18:39:22;;;;;;;14.17;12.90;;;8.80;99.90;;;;;;10488577;28;20200;-82
2021/12/15 18:44:28;;;;;;;12.90;11.90;;;8.80;99.90;;;;;;10488938;28;20708;-82
2021/12/15 18:49:31;;;;;;;13.40;12.20;;;8.80;99.90;;;;;;10503386;28;20609;-85
2021/12/15 18:54:33;;;;;;;13.90;12.70;;;8.80;99.90;;;;;;10504000;28;20213;-82
2021/12/15 18:59:38;;;;;;;12.30;11.30;;;8.90;99.90;;;;;;10504709;28;20602;-83
2021/12/15 19:04:42;;;;;;;12.27;11.27;;;8.80;99.90;;;;;;10504751;28;20208;-83
2021/12/15 19:09:46;;;;;;;13.17;12.17;;;8.80;99.90;;;;;;10505358;28;20221;-79
2021/12/15 19:14:51;;;;;;;13.40;12.40;;;8.80;99.90;;;;;;10486590;28;20215;-80
2021/12/15 19:19:56;;;;;;;15.00;13.63;;;8.80;99.90;;;;;;10504753;28;20200;-79
2021/12/15 19:25:00;;;;;;;14.80;13.60;;;8.80;99.90;;;;;;10506867;28;20308;-80
2021/12/15 19:30:11;;;;;;;13.83;12.73;;;8.70;99.90;;;;;;10501162;28;20224;-83
2021/12/15 19:35:13;;;;;;;12.87;11.87;;;8.80;99.90;;;;;;10496538;28;20657;-82
2021/12/15 19:40:19;;;;;;;12.50;11.27;;;8.80;99.90;;;;;;10517152;28;20718;-81
2021/12/15 19:45:25;;;;;;;12.70;11.70;;;8.70;99.90;;;;;;10517337;28;20266;-83
2021/12/15 19:50:28;;;;;;;12.17;11.23;;;8.70;99.90;;;;;;10519213;28;20295;-81
2021/12/15 19:55:32;;;;;;;12.07;11.17;;;8.70;99.90;;;;;;10489137;28;20200;-82
2021/12/15 20:00:37;;;;;;;13.07;12.07;;;8.60;99.90;;;;;;10499473;28;20307;-80
2021/12/15 20:05:40;;;;;;;12.50;11.60;;;8.70;99.90;;;;;;10500946;28;20717;-79
2021/12/15 20:10:44;;;;;;;12.20;11.33;;;8.70;99.90;;;;;;10483671;28;20304;-79
2021/12/15 20:15:54;;;;;;;14.67;13.57;;;8.70;99.90;;;;;;10502516;28;20196;-78
2021/12/15 20:20:57;;;;;;;13.37;12.37;;;8.70;99.90;;;;;;10501784;28;20221;-79
2021/12/15 20:26:01;;;;;;;12.20;11.30;;;8.70;99.90;;;;;;10486910;28;20228;-79
2021/12/15 20:31:07;;;;;;;12.17;11.17;;;8.60;99.90;;;;;;10501675;28;20605;-78
2021/12/15 20:36:10;;;;;;;11.73;10.83;;;8.60;99.90;;;;;;10500989;28;20224;-79
2021/12/15 20:41:13;;;;;;;12.70;11.70;;;8.60;99.90;;;;;;10502394;28;20789;-79
2021/12/15 20:46:17;;;;;;;13.03;12.03;;;8.60;99.90;;;;;;10500112;28;20331;-79
2021/12/15 20:51:20;;;;;;;11.37;10.57;;;8.60;99.90;;;;;;10500299;28;20762;-80
2021/12/15 20:56:23;;;;;;;11.90;11.00;;;8.60;99.90;;;;;;10500184;28;20197;-78
2021/12/15 21:01:29;;;;;;;11.43;10.53;;;8.30;99.90;;;;;;10498463;28;20212;-79
2021/12/15 21:06:35;;;;;;;12.07;11.17;;;8.30;99.90;;;;;;10499722;28;20220;-79
2021/12/15 21:11:38;;;;;;;13.33;12.33;;;8.30;99.90;;;;;;10513279;28;20226;-80
2021/12/15 21:16:44;;;;;;;12.83;11.83;;;8.30;99.90;;;;;;10492753;28;20207;-78
2021/12/15 21:21:52;;;;;;;14.33;13.23;;;8.30;99.90;;;;;;10450921;28;20228;-78
2021/12/15 21:27:00;;;;;;;14.53;13.43;;;8.40;99.90;;;;;;10450066;28;20219;-78
2021/12/15 21:32:05;;;;;;;13.43;12.33;;;8.40;99.90;;;;;;10502216;28;20224;-79
2021/12/15 21:37:09;;;;;;;13.03;11.93;;;8.40;99.90;;;;;;10510012;28;20207;-78
2021/12/15 21:42:24;;;;;;;13.57;12.47;;;8.40;99.90;;;;;;10500612;28;20243;-79
2021/12/15 21:47:28;;;;;;;15.03;13.83;;;8.40;99.90;;;;;;10483118;28;20642;-80
2021/12/15 21:52:33;;;;;;;14.47;13.37;;;8.30;99.90;;;;;;10502181;28;20212;-79
2021/12/15 21:57:36;;;;;;;14.00;12.80;;;8.20;99.90;;;;;;10501959;28;20187;-79
2021/12/15 22:02:40;;;;;;;13.87;12.57;;;8.20;99.90;;;;;;10481332;28;21052;-79
2021/12/15 22:07:45;;;;;;;14.20;13.10;;;8.20;99.90;;;;;;10493152;28;20799;-80
2021/12/15 22:12:48;;;;;;;16.10;14.70;;;8.20;99.90;;;;;;10505120;28;20306;-80
2021/12/15 22:17:51;;;;;;;15.50;14.10;;;8.10;99.90;;;;;;10503437;28;20189;-80
2021/12/15 22:22:54;;;;;;;16.80;15.30;;;8.10;99.90;;;;;;10504840;28;20255;-80
2021/12/15 22:27:57;;;;;;;17.60;16.00;;;8.00;99.90;;;;;;10513121;28;20216;-81
2021/12/15 22:33:04;;;;;;;18.20;16.60;;;8.10;99.90;;;;;;10511382;28;20715;-81
2021/12/15 22:38:09;;;;;;;18.30;16.70;;;8.10;99.90;;;;;;10509119;28;20301;-81
2021/12/15 22:43:11;;;;;;;17.87;16.27;;;8.00;99.90;;;;;;10508910;28;20221;-81
2021/12/15 22:48:17;;;;;;;18.30;16.70;;;8.00;99.90;;;;;;10509530;28;20208;-81
2021/12/15 22:53:19;;;;;;;17.97;16.37;;;8.00;99.90;;;;;;10512583;28;20240;-81
2021/12/15 22:58:21;;;;;;;18.17;16.37;;;8.00;99.90;;;;;;10498405;28;20192;-81
2021/12/15 23:03:28;;;;;;;19.50;17.47;;;8.00;99.90;;;;;;10500345;28;20688;-80
2021/12/15 23:08:33;;;;;;;18.67;17.07;;;8.00;99.90;;;;;;10501089;28;20224;-80
2021/12/15 23:13:39;;;;;;;18.97;17.27;;;8.10;99.90;;;;;;10500499;28;20676;-80
2021/12/15 23:18:42;;;;;;;19.73;17.93;;;8.10;99.90;;;;;;10502052;28;20269;-81
2021/12/15 23:23:46;;;;;;;16.97;15.47;;;8.10;99.90;;;;;;10501317;28;20231;-80
2021/12/15 23:28:53;;;;;;;17.87;16.27;;;8.20;99.90;;;;;;10484036;28;20224;-80
2021/12/15 23:33:57;;;;;;;18.93;17.20;;;8.20;99.90;;;;;;10500505;28;20723;-80
2021/12/15 23:39:20;;;;;;;18.20;16.50;;;8.30;99.90;;;;;;10500031;28;20200;-78
